createdAt,value
2022-08-09T00:00:25.546Z,220.00
2022-08-09T00:01:25.588Z,218.00
2022-08-09T00:02:25.842Z,217.00
2022-08-09T00:04:05.590Z,217.00
2022-08-09T00:04:34.724Z,218.00
2022-08-09T00:06:18.957Z,217.00
2022-08-09T00:06:27.570Z,216.00
2022-08-09T00:07:25.435Z,217.00
2022-08-09T00:08:32.886Z,217.00
2022-08-09T00:09:25.434Z,220.00
2022-08-09T00:10:25.397Z,221.00
2022-08-09T00:12:02.597Z,222.00
2022-08-09T00:12:25.407Z,223.00
2022-08-09T00:13:25.411Z,222.00
2022-08-09T00:14:36.431Z,222.00
2022-08-09T00:15:26.475Z,222.00
2022-08-09T00:16:25.853Z,222.00
2022-08-09T00:18:05.710Z,222.00
2022-08-09T00:18:25.314Z,221.00
2022-08-09T00:19:25.281Z,221.00
2022-08-09T00:20:25.313Z,223.00
2022-08-09T00:21:25.273Z,222.00
2022-08-09T00:22:25.255Z,223.00
2022-08-09T00:23:55.082Z,222.00
2022-08-09T00:24:27.557Z,221.00
2022-08-09T00:25:32.085Z,221.00
2022-08-09T00:26:29.951Z,221.00
2022-08-09T00:27:25.198Z,221.00
2022-08-09T00:28:26.416Z,220.00
2022-08-09T00:30:16.546Z,221.00
2022-08-09T00:30:30.413Z,222.00
2022-08-09T00:31:55.862Z,221.00
2022-08-09T00:32:26.976Z,221.00
2022-08-09T00:33:32.742Z,221.00
2022-08-09T00:34:25.150Z,221.00
2022-08-09T00:35:25.081Z,222.00
2022-08-09T00:36:29.642Z,223.00
2022-08-09T00:37:25.076Z,224.00
2022-08-09T00:38:25.076Z,223.00
2022-08-09T00:40:12.231Z,223.00
2022-08-09T00:40:30.122Z,223.00
2022-08-09T00:44:11.235Z,222.00
2022-08-09T00:44:27.261Z,223.00
2022-08-09T00:44:33.200Z,224.00
2022-08-09T00:45:34.691Z,224.00
2022-08-09T00:46:56.641Z,224.00
2022-08-09T00:47:35.858Z,220.00
2022-08-09T00:48:32.895Z,219.00
2022-08-09T00:49:32.940Z,219.00
2022-08-09T00:50:32.893Z,219.00
2022-08-09T00:51:33.884Z,219.00
2022-08-09T00:52:33.089Z,222.00
2022-08-09T00:53:32.836Z,221.00
2022-08-09T00:54:35.129Z,221.00
2022-08-09T00:56:05.369Z,219.00
2022-08-09T00:56:32.816Z,219.00
2022-08-09T00:57:34.481Z,218.00
2022-08-09T00:58:32.847Z,219.00
2022-08-09T00:59:41.638Z,219.00
2022-08-09T01:00:32.767Z,220.00
2022-08-09T01:01:32.708Z,218.00
2022-08-09T01:02:32.939Z,217.00
2022-08-09T01:03:32.830Z,214.00
2022-08-09T01:04:32.697Z,212.00
2022-08-09T01:05:53.944Z,211.00
2022-08-09T01:06:53.132Z,212.00
2022-08-09T01:07:37.995Z,213.00
2022-08-09T01:08:32.650Z,214.00
2022-08-09T01:09:35.929Z,216.00
2022-08-09T01:10:32.618Z,217.00
2022-08-09T01:11:32.613Z,220.00
2022-08-09T01:12:32.848Z,221.00
2022-08-09T01:13:41.764Z,221.00
2022-08-09T01:14:32.578Z,223.00
2022-08-09T01:15:32.588Z,225.00
2022-08-09T01:16:32.590Z,225.00
2022-08-09T01:17:34.138Z,223.00
2022-08-09T01:18:32.497Z,223.00
2022-08-09T01:19:39.944Z,223.00
2022-08-09T01:20:32.480Z,223.00
2022-08-09T01:21:41.321Z,224.00
2022-08-09T01:22:32.898Z,226.00
2022-08-09T01:24:02.106Z,226.00
2022-08-09T01:24:32.442Z,225.00
2022-08-09T01:25:32.429Z,226.00
2022-08-09T01:26:32.423Z,228.00
2022-08-09T01:27:32.397Z,228.00
2022-08-09T01:28:32.389Z,229.00
2022-08-09T01:29:55.074Z,231.00
2022-08-09T01:30:51.338Z,230.00
2022-08-09T01:32:30.118Z,231.00
2022-08-09T01:32:38.295Z,230.00
2022-08-09T01:33:32.350Z,228.00
2022-08-09T01:34:32.322Z,226.00
2022-08-09T01:35:37.593Z,225.00
2022-08-09T01:36:32.292Z,224.00
2022-08-09T01:38:06.316Z,222.00
2022-08-09T01:38:32.268Z,225.00
2022-08-09T01:39:32.298Z,226.00
2022-08-09T01:40:32.222Z,225.00
2022-08-09T01:41:32.194Z,225.00
2022-08-09T01:42:32.450Z,226.00
2022-08-09T01:43:32.190Z,225.00
2022-08-09T01:44:32.215Z,226.00
2022-08-09T01:45:32.148Z,225.00
2022-08-09T01:46:32.394Z,222.00
2022-08-09T01:47:32.128Z,223.00
2022-08-09T01:48:32.106Z,223.00
2022-08-09T01:49:39.239Z,226.00
2022-08-09T01:50:37.203Z,226.00
2022-08-09T01:51:32.942Z,223.00
2022-08-09T01:52:32.385Z,223.00
2022-08-09T01:53:41.375Z,225.00
2022-08-09T01:54:32.970Z,226.00
2022-08-09T01:55:32.010Z,227.00
2022-08-09T01:56:32.003Z,227.00
2022-08-09T01:57:32.024Z,228.00
2022-08-09T01:58:31.987Z,230.00
2022-08-09T01:59:32.372Z,228.00
2022-08-09T02:00:35.897Z,229.00
2022-08-09T02:01:58.390Z,228.00
2022-08-09T02:02:32.886Z,231.00
2022-08-09T02:03:31.938Z,231.00
2022-08-09T02:04:32.097Z,232.00
2022-08-09T02:05:38.105Z,233.00
2022-08-09T02:06:32.340Z,232.00
2022-08-09T02:08:38.807Z,231.00
2022-08-09T02:08:58.636Z,229.00
2022-08-09T02:09:42.674Z,229.00
2022-08-09T02:10:31.826Z,228.00
2022-08-09T02:11:43.512Z,228.00
2022-08-09T02:12:31.934Z,226.00
2022-08-09T02:13:37.582Z,227.00
2022-08-09T02:14:31.799Z,228.00
2022-08-09T02:15:48.832Z,229.00
2022-08-09T02:16:35.291Z,228.00
2022-08-09T02:17:59.787Z,231.00
2022-08-09T02:18:31.730Z,229.00
2022-08-09T02:19:38.638Z,229.00
2022-08-09T02:20:32.889Z,229.00
2022-08-09T02:21:31.681Z,229.00
2022-08-09T02:22:34.976Z,229.00
2022-08-09T02:23:32.057Z,230.00
2022-08-09T02:24:31.639Z,230.00
2022-08-09T02:25:31.610Z,230.00
2022-08-09T02:26:31.614Z,229.00
2022-08-09T02:27:57.538Z,228.00
2022-08-09T02:28:31.571Z,227.00
2022-08-09T02:29:32.721Z,225.00
2022-08-09T02:30:31.564Z,225.00
2022-08-09T02:31:35.577Z,225.00
2022-08-09T02:32:31.678Z,225.00
2022-08-09T02:33:38.344Z,226.00
2022-08-09T02:34:40.631Z,227.00
2022-08-09T02:36:03.531Z,225.00
2022-08-09T02:36:31.514Z,226.00
2022-08-09T02:37:33.022Z,228.00
2022-08-09T02:38:31.459Z,228.00
2022-08-09T02:39:39.678Z,226.00
2022-08-09T02:40:31.473Z,226.00
2022-08-09T02:41:31.406Z,227.00
2022-08-09T02:42:31.773Z,225.00
2022-08-09T02:43:31.402Z,225.00
2022-08-09T02:44:31.398Z,224.00
2022-08-09T02:45:31.356Z,227.00
2022-08-09T02:46:31.339Z,226.00
2022-08-09T02:47:33.939Z,227.00
2022-08-09T02:48:31.623Z,229.00
2022-08-09T02:49:40.928Z,228.00
2022-08-09T02:50:31.275Z,226.00
2022-08-09T02:51:37.071Z,226.00
2022-08-09T02:52:31.480Z,226.00
2022-08-09T02:53:31.278Z,223.00
2022-08-09T02:54:31.631Z,223.00
2022-08-09T02:55:46.372Z,223.00
2022-08-09T02:56:31.180Z,225.00
2022-08-09T02:57:31.183Z,224.00
2022-08-09T02:58:35.629Z,226.00
2022-08-09T02:59:36.567Z,226.00
2022-08-09T03:00:31.157Z,225.00
2022-08-09T03:01:43.331Z,225.00
2022-08-09T03:02:31.447Z,224.00
2022-08-09T03:04:13.205Z,225.00
2022-08-09T03:04:31.104Z,224.00
2022-08-09T03:05:34.704Z,224.00
2022-08-09T03:06:31.074Z,225.00
2022-08-09T03:07:31.054Z,226.00
2022-08-09T03:08:31.031Z,226.00
2022-08-09T03:09:33.743Z,225.00
2022-08-09T03:10:31.016Z,226.00
2022-08-09T03:12:10.506Z,226.00
2022-08-09T03:12:31.185Z,226.00
2022-08-09T03:13:43.941Z,225.00
2022-08-09T03:14:30.948Z,226.00
2022-08-09T03:15:40.440Z,226.00
2022-08-09T03:16:30.923Z,227.00
2022-08-09T03:17:30.913Z,228.00
2022-08-09T03:18:31.191Z,228.00
2022-08-09T03:19:59.204Z,229.00
2022-08-09T03:20:30.874Z,227.00
2022-08-09T03:21:36.613Z,226.00
2022-08-09T03:22:31.084Z,225.00
2022-08-09T03:23:30.813Z,225.00
2022-08-09T03:24:31.488Z,227.00
2022-08-09T03:25:58.597Z,229.00
2022-08-09T03:26:32.067Z,228.00
2022-08-09T03:27:30.777Z,228.00
2022-08-09T03:28:30.753Z,226.00
2022-08-09T03:29:30.741Z,227.00
2022-08-09T03:30:34.072Z,230.00
2022-08-09T03:31:30.732Z,230.00
2022-08-09T03:32:31.069Z,231.00
2022-08-09T03:33:54.046Z,228.00
2022-08-09T03:34:30.685Z,227.00
2022-08-09T03:35:44.340Z,226.00
2022-08-09T03:36:30.661Z,226.00
2022-08-09T03:37:57.101Z,226.00
2022-08-09T03:38:30.714Z,223.00
2022-08-09T03:39:37.822Z,221.00
2022-08-09T03:40:30.887Z,221.00
2022-08-09T03:41:48.391Z,222.00
2022-08-09T03:42:30.901Z,225.00
2022-08-09T03:43:31.694Z,226.00
2022-08-09T03:44:32.057Z,226.00
2022-08-09T03:46:03.859Z,226.00
2022-08-09T03:46:30.542Z,228.00
2022-08-09T03:47:30.489Z,227.00
2022-08-09T03:48:30.992Z,229.00
2022-08-09T03:49:35.637Z,230.00
2022-08-09T03:50:32.028Z,231.00
2022-08-09T03:51:43.866Z,229.00
2022-08-09T03:52:30.631Z,228.00
2022-08-09T03:53:32.174Z,229.00
2022-08-09T03:54:31.325Z,229.00
2022-08-09T03:55:36.132Z,234.00
2022-08-09T03:56:30.388Z,234.00
2022-08-09T03:57:30.377Z,235.00
2022-08-09T03:58:30.369Z,235.00
2022-08-09T03:59:43.227Z,235.00
2022-08-09T04:00:30.357Z,234.00
2022-08-09T04:01:30.306Z,234.00
2022-08-09T04:02:30.726Z,234.00
2022-08-09T04:03:46.101Z,232.00
2022-08-09T04:04:36.277Z,232.00
2022-08-09T04:05:32.292Z,229.00
2022-08-09T04:06:30.251Z,230.00
2022-08-09T04:07:33.790Z,230.00
2022-08-09T04:08:30.244Z,231.00
2022-08-09T04:09:48.170Z,230.00
2022-08-09T04:10:30.595Z,229.00
2022-08-09T04:11:30.180Z,231.00
2022-08-09T04:12:31.678Z,231.00
2022-08-09T04:14:36.666Z,231.00
2022-08-09T04:15:00.646Z,230.00
2022-08-09T04:15:52.400Z,230.00
2022-08-09T04:16:30.139Z,231.00
2022-08-09T04:17:30.117Z,230.00
2022-08-09T04:18:30.096Z,230.00
2022-08-09T04:19:50.969Z,228.00
2022-08-09T04:20:30.073Z,228.00
2022-08-09T04:21:30.066Z,230.00
2022-08-09T04:22:30.293Z,229.00
2022-08-09T04:23:30.039Z,230.00
2022-08-09T04:24:30.031Z,229.00
2022-08-09T04:25:30.006Z,228.00
2022-08-09T04:26:35.059Z,227.00
2022-08-09T04:27:30.001Z,226.00
2022-08-09T04:28:32.943Z,227.00
2022-08-09T04:29:30.105Z,227.00
2022-08-09T04:30:29.947Z,226.00
2022-08-09T04:31:37.583Z,224.00
2022-08-09T04:32:34.114Z,226.00
2022-08-09T04:33:29.911Z,225.00
2022-08-09T04:34:31.694Z,225.00
2022-08-09T04:35:32.856Z,227.00
2022-08-09T04:36:29.856Z,226.00
2022-08-09T04:37:45.226Z,226.00
2022-08-09T04:38:29.856Z,226.00
2022-08-09T04:39:30.884Z,225.00
2022-08-09T04:40:36.131Z,225.00
2022-08-09T04:41:33.026Z,227.00
2022-08-09T04:42:30.106Z,228.00
2022-08-09T04:43:29.777Z,227.00
2022-08-09T04:44:29.789Z,229.00
2022-08-09T04:45:30.601Z,228.00
2022-08-09T04:46:36.450Z,228.00
2022-08-09T04:47:33.179Z,227.00
2022-08-09T04:48:33.502Z,228.00
2022-08-09T04:49:40.430Z,227.00
2022-08-09T04:50:31.890Z,228.00
2022-08-09T04:51:29.666Z,229.00
2022-08-09T04:52:29.804Z,227.00
2022-08-09T04:53:31.459Z,227.00
2022-08-09T04:54:29.613Z,227.00
2022-08-09T04:55:38.337Z,227.00
2022-08-09T04:56:29.617Z,226.00
2022-08-09T04:57:58.596Z,228.00
2022-08-09T04:58:31.685Z,227.00
2022-08-09T04:59:30.132Z,226.00
2022-08-09T05:00:31.788Z,224.00
2022-08-09T05:01:29.512Z,225.00
2022-08-09T05:02:29.508Z,224.00
2022-08-09T05:03:40.979Z,224.00
2022-08-09T05:04:30.650Z,226.00
2022-08-09T05:05:31.851Z,225.00
2022-08-09T05:06:32.640Z,221.00
2022-08-09T05:07:32.014Z,220.00
2022-08-09T05:08:29.499Z,221.00
2022-08-09T05:09:42.021Z,223.00
2022-08-09T05:10:29.397Z,225.00
2022-08-09T05:11:32.170Z,226.00
2022-08-09T05:12:29.390Z,225.00
2022-08-09T05:13:29.362Z,225.00
2022-08-09T05:14:29.342Z,225.00
2022-08-09T05:15:39.405Z,227.00
2022-08-09T05:16:31.980Z,227.00
2022-08-09T05:18:38.719Z,229.00
2022-08-09T05:18:59.052Z,231.00
2022-08-09T05:19:38.406Z,230.00
2022-08-09T05:20:29.937Z,230.00
2022-08-09T05:21:29.964Z,232.00
2022-08-09T05:22:35.109Z,232.00
2022-08-09T05:24:01.622Z,231.00
2022-08-09T05:24:29.233Z,233.00
2022-08-09T05:25:32.412Z,233.00
2022-08-09T05:26:36.743Z,236.00
2022-08-09T05:27:31.019Z,234.00
2022-08-09T05:28:29.190Z,234.00
2022-08-09T05:29:31.514Z,233.00
2022-08-09T05:30:31.184Z,233.00
2022-08-09T05:31:44.427Z,234.00
2022-08-09T05:32:30.053Z,235.00
2022-08-09T05:33:33.174Z,237.00
2022-08-09T05:34:30.843Z,238.00
2022-08-09T05:35:29.071Z,236.00
2022-08-09T05:36:29.096Z,235.00
2022-08-09T05:37:29.040Z,235.00
2022-08-09T05:38:29.048Z,234.00
2022-08-09T05:39:35.855Z,235.00
2022-08-09T05:40:29.065Z,235.00
2022-08-09T05:41:29.063Z,235.00
2022-08-09T05:42:28.991Z,235.00
2022-08-09T05:43:31.974Z,234.00
2022-08-09T05:44:32.785Z,234.00
2022-08-09T05:45:52.545Z,233.00
2022-08-09T05:46:28.944Z,233.00
2022-08-09T05:47:30.407Z,231.00
2022-08-09T05:48:33.241Z,230.00
2022-08-09T05:50:29.980Z,230.00
2022-08-09T05:50:57.061Z,231.00
2022-08-09T05:51:42.828Z,232.00
2022-08-09T05:52:31.630Z,231.00
2022-08-09T05:53:33.398Z,232.00
2022-08-09T05:54:28.844Z,231.00
2022-08-09T05:55:28.850Z,231.00
2022-08-09T05:56:28.841Z,232.00
2022-08-09T05:57:50.890Z,230.00
2022-08-09T05:58:28.769Z,230.00
2022-08-09T05:59:28.775Z,228.00
2022-08-09T06:00:29.576Z,228.00
2022-08-09T06:01:33.631Z,227.00
2022-08-09T06:02:28.814Z,227.00
2022-08-09T06:03:34.879Z,228.00
2022-08-09T06:04:35.080Z,230.00
2022-08-09T06:05:31.255Z,232.00
2022-08-09T06:06:28.689Z,233.00
2022-08-09T06:07:28.667Z,233.00
2022-08-09T06:08:28.656Z,236.00
2022-08-09T06:09:54.160Z,236.00
2022-08-09T06:10:28.611Z,238.00
2022-08-09T06:11:40.858Z,237.00
2022-08-09T06:12:28.683Z,236.00
2022-08-09T06:13:33.792Z,234.00
2022-08-09T06:14:28.620Z,236.00
2022-08-09T06:15:28.552Z,237.00
2022-08-09T06:16:28.547Z,237.00
2022-08-09T06:17:40.284Z,237.00
2022-08-09T06:18:28.521Z,237.00
2022-08-09T06:19:28.503Z,235.00
2022-08-09T06:20:28.495Z,235.00
2022-08-09T06:21:28.492Z,235.00
2022-08-09T06:22:28.996Z,237.00
2022-08-09T06:23:57.461Z,236.00
2022-08-09T06:24:28.444Z,234.00
2022-08-09T06:25:28.432Z,233.00
2022-08-09T06:26:28.949Z,233.00
2022-08-09T06:27:42.329Z,232.00
2022-08-09T06:28:32.044Z,234.00
2022-08-09T06:29:28.375Z,237.00
2022-08-09T06:30:28.336Z,236.00
2022-08-09T06:31:31.175Z,234.00
2022-08-09T06:33:13.376Z,234.00
2022-08-09T06:33:52.987Z,235.00
2022-08-09T06:34:30.751Z,235.00
2022-08-09T06:35:56.482Z,235.00
2022-08-09T06:36:29.898Z,233.00
2022-08-09T06:37:28.860Z,233.00
2022-08-09T06:38:32.103Z,233.00
2022-08-09T06:39:48.232Z,234.00
2022-08-09T06:40:28.293Z,234.00
2022-08-09T06:41:58.856Z,236.00
2022-08-09T06:42:30.549Z,237.00
2022-08-09T06:43:34.063Z,236.00
2022-08-09T06:44:28.197Z,240.00
2022-08-09T06:46:07.785Z,241.00
2022-08-09T06:46:40.176Z,241.00
2022-08-09T06:47:30.082Z,242.00
2022-08-09T06:48:30.938Z,243.00
2022-08-09T06:49:45.163Z,244.00
2022-08-09T06:50:28.162Z,243.00
2022-08-09T06:51:28.320Z,241.00
2022-08-09T06:52:28.048Z,241.00
2022-08-09T06:53:33.395Z,239.00
2022-08-09T06:54:28.052Z,238.00
2022-08-09T06:55:28.028Z,237.00
2022-08-09T06:56:30.821Z,235.00
2022-08-09T06:58:01.640Z,235.00
2022-08-09T06:58:40.625Z,236.00
2022-08-09T07:00:59.845Z,236.00
2022-08-09T07:01:05.495Z,237.00
2022-08-09T07:02:05.552Z,236.00
2022-08-09T07:03:06.186Z,237.00
2022-08-09T07:04:05.431Z,237.00
2022-08-09T07:05:05.421Z,239.00
2022-08-09T07:06:05.597Z,239.00
2022-08-09T07:07:05.397Z,238.00
2022-08-09T07:08:05.379Z,237.00
2022-08-09T07:09:05.385Z,237.00
2022-08-09T07:10:14.246Z,236.00
2022-08-09T07:11:06.540Z,235.00
2022-08-09T07:12:05.334Z,234.00
2022-08-09T07:13:27.674Z,232.00
2022-08-09T07:14:06.347Z,232.00
2022-08-09T07:16:36.695Z,232.00
2022-08-09T07:16:48.155Z,235.00
2022-08-09T07:17:05.261Z,231.00
2022-08-09T07:18:05.235Z,230.00
2022-08-09T07:19:05.280Z,231.00
2022-08-09T07:20:05.193Z,231.00
2022-08-09T07:21:07.662Z,228.00
2022-08-09T07:22:05.202Z,229.00
2022-08-09T07:23:18.248Z,229.00
2022-08-09T07:24:05.186Z,231.00
2022-08-09T07:25:09.810Z,232.00
2022-08-09T07:26:05.152Z,233.00
2022-08-09T07:27:10.893Z,231.00
2022-08-09T07:28:05.120Z,231.00
2022-08-09T07:29:13.116Z,232.00
2022-08-09T07:30:05.503Z,233.00
2022-08-09T07:31:05.104Z,234.00
2022-08-09T07:32:05.052Z,235.00
2022-08-09T07:33:10.281Z,234.00
2022-08-09T07:34:05.166Z,234.00
2022-08-09T07:35:10.062Z,235.00
2022-08-09T07:36:05.018Z,234.00
2022-08-09T07:37:04.987Z,235.00
2022-08-09T07:38:05.017Z,235.00
2022-08-09T07:39:05.038Z,234.00
2022-08-09T07:40:05.176Z,232.00
2022-08-09T07:41:13.157Z,234.00
2022-08-09T07:42:05.110Z,234.00
2022-08-09T07:43:14.725Z,236.00
2022-08-09T07:44:04.922Z,235.00
2022-08-09T07:45:06.488Z,233.00
2022-08-09T07:46:04.858Z,234.00
2022-08-09T07:47:04.893Z,235.00
2022-08-09T07:48:05.236Z,237.00
2022-08-09T07:49:04.813Z,238.00
2022-08-09T07:50:08.525Z,238.00
2022-08-09T07:52:02.445Z,236.00
2022-08-09T07:52:17.718Z,235.00
2022-08-09T07:53:05.235Z,233.00
2022-08-09T07:54:08.468Z,233.00
2022-08-09T07:55:09.732Z,234.00
2022-08-09T07:56:06.666Z,237.00
2022-08-09T07:57:04.748Z,235.00
2022-08-09T07:58:04.726Z,236.00
2022-08-09T07:59:10.505Z,233.00
2022-08-09T08:00:04.685Z,230.00
2022-08-09T08:01:06.666Z,231.00
2022-08-09T08:02:04.905Z,234.00
2022-08-09T08:03:08.033Z,234.00
2022-08-09T08:04:04.641Z,233.00
2022-08-09T08:05:04.675Z,231.00
2022-08-09T08:06:04.621Z,235.00
2022-08-09T08:07:27.211Z,235.00
2022-08-09T08:09:07.729Z,233.00
2022-08-09T08:09:51.796Z,232.00
2022-08-09T08:10:15.425Z,232.00
2022-08-09T08:12:25.010Z,234.00
2022-08-09T08:12:32.819Z,237.00
2022-08-09T08:13:15.352Z,237.00
2022-08-09T08:14:15.335Z,238.00
2022-08-09T08:15:16.877Z,236.00
2022-08-09T08:16:29.754Z,236.00
2022-08-09T08:17:35.243Z,237.00
2022-08-09T08:18:16.382Z,236.00
2022-08-09T08:19:15.274Z,232.00
2022-08-09T08:20:15.287Z,234.00
2022-08-09T08:21:15.248Z,231.00
2022-08-09T08:22:15.228Z,227.00
2022-08-09T08:23:16.610Z,228.00
2022-08-09T08:24:16.704Z,230.00
2022-08-09T08:25:15.552Z,233.00
2022-08-09T08:26:15.184Z,233.00
2022-08-09T08:27:16.856Z,234.00
2022-08-09T08:28:15.525Z,234.00
2022-08-09T08:29:15.149Z,236.00
2022-08-09T08:30:15.176Z,237.00
2022-08-09T08:31:15.452Z,237.00
2022-08-09T08:32:24.538Z,237.00
2022-08-09T08:33:23.233Z,238.00
2022-08-09T08:34:15.082Z,237.00
2022-08-09T08:35:18.147Z,238.00
2022-08-09T08:36:28.380Z,234.00
2022-08-09T08:37:17.660Z,235.00
2022-08-09T08:38:15.039Z,237.00
2022-08-09T08:39:15.086Z,239.00
2022-08-09T08:40:15.014Z,243.00
2022-08-09T08:41:15.001Z,248.00
2022-08-09T08:42:15.801Z,249.00
2022-08-09T08:43:14.987Z,250.00
2022-08-09T08:44:14.973Z,250.00
2022-08-09T08:45:14.952Z,251.00
2022-08-09T08:46:32.389Z,252.00
2022-08-09T08:47:15.127Z,253.00
2022-08-09T08:48:16.834Z,254.00
2022-08-09T08:49:19.132Z,253.00
2022-08-09T08:50:15.532Z,253.00
2022-08-09T08:51:14.898Z,255.00
2022-08-09T08:52:41.479Z,253.00
2022-08-09T08:53:21.661Z,255.00
2022-08-09T08:54:20.192Z,254.00
2022-08-09T08:55:15.377Z,255.00
2022-08-09T08:56:28.226Z,258.00
2022-08-09T08:57:14.809Z,258.00
2022-08-09T08:58:14.804Z,260.00
2022-08-09T08:59:19.341Z,260.00
2022-08-09T09:00:27.232Z,263.00
2022-08-09T09:01:19.673Z,266.00
2022-08-09T09:02:14.808Z,267.00
2022-08-09T09:03:22.806Z,273.00
2022-08-09T09:04:14.808Z,279.00
2022-08-09T09:05:14.721Z,283.00
2022-08-09T09:06:14.708Z,284.00
2022-08-09T09:07:14.678Z,284.00
2022-08-09T09:08:29.779Z,284.00
2022-08-09T09:09:21.006Z,283.00
2022-08-09T09:10:14.661Z,285.00
2022-08-09T09:11:17.617Z,288.00
2022-08-09T09:12:16.963Z,286.00
2022-08-09T09:13:15.106Z,288.00
2022-08-09T09:14:15.817Z,292.00
2022-08-09T09:15:28.356Z,292.00
2022-08-09T09:16:14.590Z,288.00
2022-08-09T09:17:16.369Z,286.00
2022-08-09T09:18:14.603Z,284.00
2022-08-09T09:19:37.093Z,285.00
2022-08-09T09:20:15.436Z,286.00
2022-08-09T09:21:14.518Z,286.00
2022-08-09T09:22:15.877Z,286.00
2022-08-09T09:23:14.523Z,283.00
2022-08-09T09:24:21.872Z,285.00
2022-08-09T09:26:03.656Z,288.00
2022-08-09T09:26:17.110Z,288.00
2022-08-09T09:28:04.421Z,289.00
2022-08-09T09:28:14.509Z,285.00
2022-08-09T09:29:16.872Z,285.00
2022-08-09T09:31:17.277Z,278.00
2022-08-09T09:32:15.838Z,276.00
2022-08-09T09:33:16.590Z,274.00
2022-08-09T09:34:15.154Z,277.00
2022-08-09T09:35:15.783Z,281.00
2022-08-09T09:36:20.412Z,283.00
2022-08-09T09:37:14.352Z,286.00
2022-08-09T09:38:18.460Z,288.00
2022-08-09T09:39:14.497Z,287.00
2022-08-09T09:40:14.470Z,284.00
2022-08-09T09:41:14.309Z,286.00
2022-08-09T09:42:14.288Z,290.00
2022-08-09T09:43:14.285Z,292.00
2022-08-09T09:44:25.173Z,290.00
2022-08-09T09:45:25.799Z,288.00
2022-08-09T09:47:14.267Z,285.00
2022-08-09T09:48:14.472Z,287.00
2022-08-09T09:49:14.229Z,286.00
2022-08-09T09:50:17.598Z,283.00
2022-08-09T09:51:26.179Z,282.00
2022-08-09T09:52:35.640Z,282.00
2022-08-09T09:53:14.214Z,281.00
2022-08-09T09:54:20.482Z,286.00
2022-08-09T09:55:24.425Z,286.00
2022-08-09T09:56:19.784Z,289.00
2022-08-09T09:58:02.605Z,288.00
2022-08-09T09:58:17.026Z,289.00
2022-08-09T09:59:14.122Z,290.00
2022-08-09T10:00:14.102Z,290.00
2022-08-09T10:01:31.152Z,291.00
2022-08-09T10:02:14.049Z,291.00
2022-08-09T10:03:14.242Z,289.00
2022-08-09T10:04:15.982Z,291.00
2022-08-09T10:05:14.042Z,294.00
2022-08-09T10:06:14.031Z,296.00
2022-08-09T10:07:14.011Z,297.00
2022-08-09T10:08:28.444Z,296.00
2022-08-09T10:09:23.402Z,295.00
2022-08-09T10:10:14.019Z,295.00
2022-08-09T10:11:58.927Z,294.00
2022-08-09T10:12:43.659Z,293.00
2022-08-09T10:13:13.934Z,294.00
2022-08-09T10:14:13.930Z,296.00
2022-08-09T10:15:17.451Z,295.00
2022-08-09T10:16:57.132Z,293.00
2022-08-09T10:17:51.098Z,296.00
2022-08-09T10:18:13.888Z,303.00
2022-08-09T10:19:13.873Z,304.00
2022-08-09T10:20:15.281Z,304.00
2022-08-09T10:21:13.839Z,301.00
2022-08-09T10:22:13.817Z,298.00
2022-08-09T10:23:13.840Z,297.00
2022-08-09T10:24:16.009Z,295.00
2022-08-09T10:25:14.655Z,291.00
2022-08-09T10:26:13.800Z,290.00
2022-08-09T10:27:18.201Z,294.00
2022-08-09T10:28:13.783Z,298.00
2022-08-09T10:29:37.144Z,303.00
2022-08-09T10:32:38.318Z,307.00
2022-08-09T10:34:04.294Z,308.00
2022-08-09T10:34:33.247Z,307.00
2022-08-09T10:35:13.708Z,305.00
2022-08-09T10:36:13.734Z,305.00
2022-08-09T10:37:13.931Z,301.00
2022-08-09T10:38:34.350Z,297.00
2022-08-09T10:39:16.188Z,296.00
2022-08-09T10:40:33.704Z,295.00
2022-08-09T10:41:13.654Z,294.00
2022-08-09T10:42:13.616Z,295.00
2022-08-09T10:43:13.599Z,294.00
2022-08-09T10:44:13.625Z,294.00
2022-08-09T10:45:16.579Z,294.00
2022-08-09T10:46:20.039Z,293.00
2022-08-09T10:48:12.783Z,292.00
2022-08-09T10:48:31.363Z,292.00
2022-08-09T10:49:13.531Z,292.00
2022-08-09T10:50:15.023Z,291.00
2022-08-09T10:51:13.705Z,290.00
2022-08-09T10:52:14.758Z,292.00
2022-08-09T10:53:13.511Z,295.00
2022-08-09T10:54:13.474Z,296.00
2022-08-09T10:55:13.504Z,298.00
2022-08-09T10:56:13.469Z,300.00
2022-08-09T10:57:13.452Z,302.00
2022-08-09T10:58:17.169Z,303.00
2022-08-09T10:59:13.427Z,302.00
2022-08-09T11:00:13.424Z,302.00
2022-08-09T11:03:13.339Z,302.00
2022-08-09T11:03:46.788Z,303.00
2022-08-09T11:04:02.128Z,306.00
2022-08-09T11:04:34.593Z,304.00
2022-08-09T11:05:34.564Z,302.00
2022-08-09T11:06:34.545Z,301.00
2022-08-09T11:07:57.038Z,304.00
2022-08-09T11:08:34.531Z,307.00
2022-08-09T11:09:36.688Z,303.00
2022-08-09T11:10:34.486Z,301.00
2022-08-09T11:11:34.497Z,303.00
2022-08-09T11:12:34.925Z,301.00
2022-08-09T11:13:54.234Z,362.00
2022-08-09T11:14:34.462Z,315.00
2022-08-09T11:15:38.504Z,342.00
2022-08-09T11:16:35.717Z,281.00
2022-08-09T11:17:34.421Z,294.00
2022-08-09T11:18:34.404Z,295.00
2022-08-09T11:20:11.229Z,293.00
2022-08-09T11:20:34.378Z,292.00
2022-08-09T11:21:34.362Z,287.00
2022-08-09T11:22:34.390Z,284.00
2022-08-09T11:23:34.352Z,281.00
2022-08-09T11:24:34.325Z,280.00
2022-08-09T11:25:44.976Z,276.00
2022-08-09T11:26:34.325Z,273.00
2022-08-09T11:28:04.333Z,272.00
2022-08-09T11:28:38.859Z,97.00
2022-08-09T11:30:04.512Z,425.00
2022-08-09T11:30:36.004Z,276.00
2022-08-09T11:31:36.510Z,261.00
2022-08-09T11:32:34.518Z,265.00
2022-08-09T11:33:34.226Z,268.00
2022-08-09T11:34:34.839Z,272.00
2022-08-09T11:35:35.320Z,275.00
2022-08-09T11:36:35.335Z,279.00
2022-08-09T11:37:40.900Z,281.00
2022-08-09T11:38:34.915Z,284.00
2022-08-09T11:39:38.748Z,286.00
2022-08-09T11:40:34.156Z,289.00
2022-08-09T11:41:37.542Z,289.00
2022-08-09T11:42:34.511Z,290.00
2022-08-09T11:43:34.115Z,291.00
2022-08-09T11:44:34.087Z,286.00
2022-08-09T11:45:42.197Z,290.00
2022-08-09T11:46:34.085Z,306.00
2022-08-09T11:47:34.053Z,353.00
2022-08-09T11:48:34.048Z,294.00
2022-08-09T11:49:42.955Z,288.00
2022-08-09T11:52:49.044Z,288.00
2022-08-09T11:54:01.398Z,289.00
2022-08-09T11:54:13.478Z,272.00
2022-08-09T11:54:28.692Z,307.00
2022-08-09T11:55:21.752Z,231.00
2022-08-09T11:56:19.647Z,318.00
2022-08-09T11:57:28.328Z,328.00
2022-08-09T11:58:19.551Z,302.00
2022-08-09T11:59:19.444Z,294.00
2022-08-09T12:00:24.288Z,287.00
2022-08-09T12:02:15.737Z,310.00
2022-08-09T12:02:37.260Z,296.00
2022-08-09T12:03:54.789Z,294.00
2022-08-09T12:04:20.841Z,294.00
2022-08-09T12:05:22.660Z,275.00
2022-08-09T12:06:26.453Z,295.00
2022-08-09T12:07:19.375Z,279.00
2022-08-09T12:08:19.837Z,273.00
2022-08-09T12:09:20.916Z,287.00
2022-08-09T12:10:38.304Z,287.00
2022-08-09T12:11:19.323Z,282.00
2022-08-09T12:12:20.599Z,277.00
2022-08-09T12:14:07.509Z,272.00
2022-08-09T12:14:28.794Z,269.00
2022-08-09T12:15:22.262Z,265.00
2022-08-09T12:16:30.979Z,261.00
2022-08-09T12:17:34.258Z,262.00
2022-08-09T12:18:29.901Z,259.00
2022-08-09T12:19:19.209Z,255.00
2022-08-09T12:20:21.534Z,252.00
2022-08-09T12:21:28.597Z,199.00
2022-08-09T12:22:19.181Z,224.00
2022-08-09T12:23:24.555Z,234.00
2022-08-09T12:24:19.156Z,250.00
2022-08-09T12:25:36.335Z,259.00
2022-08-09T12:26:19.875Z,331.00
2022-08-09T12:29:15.301Z,310.00
2022-08-09T12:29:52.434Z,298.00
2022-08-09T12:30:35.175Z,274.00
2022-08-09T12:30:45.024Z,270.00
2022-08-09T12:32:01.984Z,266.00
2022-08-09T12:32:45.014Z,263.00
2022-08-09T12:33:59.462Z,259.00
2022-08-09T12:34:44.963Z,255.00
2022-08-09T12:35:45.012Z,253.00